createdAt,value
2023-02-07T00:00:55.867Z,94.20
2023-02-07T00:03:25.134Z,94.20
2023-02-07T00:05:53.121Z,94.10
2023-02-07T00:08:21.014Z,94.10
2023-02-07T00:10:48.898Z,94.10
2023-02-07T00:13:16.777Z,94.00
2023-02-07T18:30:43.457Z,90.20
2023-02-07T18:33:13.411Z,90.20
2023-02-07T18:35:41.439Z,90.10
2023-02-07T18:38:09.583Z,89.90
2023-02-07T18:40:37.924Z,89.60
2023-02-07T18:43:05.964Z,89.50
2023-02-07T18:45:36.315Z,89.70
2023-02-07T18:48:05.577Z,89.90
2023-02-07T18:50:33.469Z,89.00
2023-02-07T18:53:01.359Z,89.60
2023-02-07T18:55:29.281Z,90.10
2023-02-07T18:57:57.324Z,90.10
2023-02-07T19:00:25.192Z,90.10
2023-02-07T19:02:53.111Z,90.30
2023-02-07T19:05:22.415Z,90.40
2023-02-07T19:07:50.255Z,90.20
2023-02-07T19:10:18.514Z,90.30
2023-02-07T19:12:46.409Z,90.10
2023-02-07T19:15:14.334Z,90.20
2023-02-07T19:17:42.216Z,90.20
2023-02-07T19:20:11.163Z,90.20
2023-02-07T19:22:41.061Z,90.10
2023-02-07T19:25:09.669Z,90.20
2023-02-07T19:27:37.571Z,90.10
2023-02-07T19:30:07.857Z,90.10
2023-02-07T19:32:35.744Z,90.10
2023-02-07T19:35:03.746Z,90.00
2023-02-07T19:37:31.639Z,90.00
2023-02-07T19:40:00.883Z,89.80
2023-02-07T19:42:28.758Z,89.70
2023-02-07T19:44:56.632Z,89.50
2023-02-07T19:47:24.505Z,90.00
2023-02-07T19:49:52.689Z,89.80
2023-02-07T19:52:21.256Z,90.00
2023-02-07T19:54:49.200Z,90.00
2023-02-07T19:57:18.675Z,90.00
2023-02-07T19:59:48.243Z,89.80
2023-02-07T20:02:16.162Z,89.90
2023-02-07T20:04:44.278Z,89.80
2023-02-07T20:07:12.148Z,89.80
2023-02-07T20:09:39.993Z,89.90
2023-02-07T20:12:08.257Z,89.80
2023-02-07T20:14:37.679Z,89.80
2023-02-07T20:17:07.026Z,89.70
2023-02-07T20:19:34.947Z,89.90
2023-02-07T20:22:02.874Z,90.00
2023-02-07T20:24:30.766Z,89.60
2023-02-07T20:26:58.660Z,89.20
2023-02-07T20:29:26.537Z,89.00
2023-02-07T20:31:56.000Z,90.00
2023-02-07T20:34:23.899Z,90.10
2023-02-07T20:36:51.740Z,90.20
2023-02-07T20:39:21.429Z,90.00
2023-02-07T20:41:50.348Z,90.00
2023-02-07T20:44:20.012Z,90.30
2023-02-07T20:46:49.346Z,90.30
2023-02-07T20:49:20.684Z,90.60
2023-02-07T20:51:50.114Z,90.40
2023-02-07T20:54:20.071Z,90.50
2023-02-07T20:56:48.154Z,90.60
2023-02-07T20:59:18.952Z,90.50
2023-02-07T21:01:47.388Z,90.50
2023-02-07T21:04:15.535Z,90.40
2023-02-07T21:06:44.996Z,90.50
2023-02-07T21:09:14.337Z,90.60
2023-02-07T21:11:45.005Z,90.50
2023-02-07T21:14:15.688Z,90.50
2023-02-07T21:16:43.656Z,90.60
2023-02-07T21:19:11.725Z,90.40
2023-02-07T21:21:40.153Z,90.60
2023-02-07T21:24:10.240Z,90.50
2023-02-07T21:26:38.116Z,90.50
2023-02-07T21:29:06.937Z,90.70
2023-02-07T21:31:36.618Z,90.50
2023-02-07T21:34:05.197Z,90.80
2023-02-07T21:36:37.468Z,90.90
2023-02-07T21:39:08.236Z,90.90
2023-02-07T21:41:39.360Z,90.90
2023-02-07T21:44:07.668Z,91.00
2023-02-07T21:46:36.969Z,91.00
2023-02-07T21:49:07.079Z,90.80
2023-02-07T21:51:36.474Z,91.00
2023-02-07T21:54:07.235Z,90.90
2023-02-07T21:56:39.248Z,90.90
2023-02-07T21:59:09.092Z,91.00
2023-02-07T22:01:37.444Z,90.80
2023-02-07T22:04:06.873Z,90.70
2023-02-07T22:06:34.861Z,90.80
2023-02-07T22:09:04.950Z,90.70
2023-02-07T22:11:35.253Z,90.80
2023-02-07T22:14:04.832Z,90.80
2023-02-07T22:16:34.104Z,90.70
2023-02-07T22:19:03.351Z,90.80
2023-02-07T22:21:33.089Z,90.60
2023-02-07T22:24:02.606Z,90.50
2023-02-07T22:26:31.246Z,90.50
2023-02-07T22:28:59.802Z,90.60
2023-02-07T22:31:31.166Z,90.90
2023-02-07T22:34:01.618Z,90.80
2023-02-07T22:36:31.473Z,90.90
2023-02-07T22:38:59.808Z,90.80
2023-02-07T22:41:28.887Z,90.80
2023-02-07T22:43:56.835Z,90.80
2023-02-07T22:46:25.870Z,90.80
2023-02-07T22:48:57.588Z,90.70
2023-02-07T22:51:27.351Z,90.70
2023-02-07T22:53:57.662Z,90.70
2023-02-07T22:56:26.536Z,90.60
2023-02-07T22:58:55.059Z,90.60
2023-02-07T23:01:26.890Z,90.80
2023-02-07T23:03:57.023Z,91.00
2023-02-07T23:06:25.994Z,90.90
2023-02-07T23:08:54.894Z,91.00
2023-02-07T23:11:24.125Z,90.90
2023-02-07T23:13:52.957Z,91.10
2023-02-07T23:16:22.969Z,91.10
2023-02-07T23:18:51.824Z,90.90
2023-02-07T23:21:22.701Z,90.70
2023-02-07T23:23:51.088Z,90.70
2023-02-07T23:26:21.713Z,90.80
2023-02-07T23:28:49.622Z,90.70
2023-02-07T23:31:20.036Z,90.70
2023-02-07T23:33:48.519Z,90.70
2023-02-07T23:36:17.806Z,90.70
2023-02-07T23:38:47.880Z,90.70
2023-02-07T23:41:16.628Z,90.70
2023-02-07T23:43:44.748Z,90.50
2023-02-07T23:46:14.193Z,90.50
2023-02-07T23:48:42.186Z,90.80
2023-02-07T23:51:11.704Z,90.70
2023-02-07T23:53:39.605Z,90.90
2023-02-07T23:56:12.998Z,90.60
2023-02-07T23:58:40.907Z,90.80
